sensor_id;sensor_type;location;lat;lon;timestamp;P1;durP1;ratioP1;P2;durP2;ratioP2
8716;SDS011;4395;48.554;8.820;2023-03-01T00:00:43;17.35;;;11.98;;
8716;SDS011;4395;48.554;8.820;2023-03-01T00:02:47;17.92;;;12.13;;
8716;SDS011;4395;48.554;8.820;2023-03-01T00:04:50;15.70;;;12.30;;
8716;SDS011;4395;48.554;8.820;2023-03-01T00:06:53;17.00;;;12.40;;
8716;SDS011;4395;48.554;8.820;2023-03-01T00:08:56;17.05;;;12.75;;
8716;SDS011;4395;48.554;8.820;2023-03-01T00:11:03;18.30;;;13.48;;
8716;SDS011;4395;48.554;8.820;2023-03-01T00:13:06;16.30;;;12.30;;
8716;SDS011;4395;48.554;8.820;2023-03-01T00:15:11;15.43;;;11.65;;
8716;SDS011;4395;48.554;8.820;2023-03-01T00:17:14;15.35;;;12.32;;
8716;SDS011;4395;48.554;8.820;2023-03-01T00:19:17;17.50;;;13.05;;
8716;SDS011;4395;48.554;8.820;2023-03-01T00:21:23;15.93;;;11.43;;
8716;SDS011;4395;48.554;8.820;2023-03-01T00:23:26;17.77;;;12.68;;
8716;SDS011;4395;48.554;8.820;2023-03-01T00:25:29;15.63;;;12.02;;
8716;SDS011;4395;48.554;8.820;2023-03-01T00:27:32;15.95;;;12.13;;
8716;SDS011;4395;48.554;8.820;2023-03-01T00:29:35;15.60;;;12.13;;
8716;SDS011;4395;48.554;8.820;2023-03-01T00:31:39;16.55;;;12.13;;
8716;SDS011;4395;48.554;8.820;2023-03-01T00:33:42;16.77;;;12.52;;
8716;SDS011;4395;48.554;8.820;2023-03-01T00:35:45;19.27;;;13.48;;
8716;SDS011;4395;48.554;8.820;2023-03-01T00:37:48;17.58;;;11.40;;
8716;SDS011;4395;48.554;8.820;2023-03-01T00:39:54;17.63;;;12.98;;
8716;SDS011;4395;48.554;8.820;2023-03-01T00:41:57;21.80;;;13.57;;
8716;SDS011;4395;48.554;8.820;2023-03-01T00:44:00;19.00;;;13.13;;
8716;SDS011;4395;48.554;8.820;2023-03-01T00:46:03;18.85;;;13.27;;
8716;SDS011;4395;48.554;8.820;2023-03-01T00:48:08;19.45;;;13.80;;
8716;SDS011;4395;48.554;8.820;2023-03-01T00:50:11;19.50;;;14.02;;
8716;SDS011;4395;48.554;8.820;2023-03-01T00:52:14;22.45;;;13.57;;
8716;SDS011;4395;48.554;8.820;2023-03-01T00:54:17;20.35;;;13.82;;
8716;SDS011;4395;48.554;8.820;2023-03-01T00:56:21;18.88;;;12.48;;
8716;SDS011;4395;48.554;8.820;2023-03-01T00:58:24;19.15;;;13.70;;
8716;SDS011;4395;48.554;8.820;2023-03-01T01:00:27;18.20;;;12.90;;
8716;SDS011;4395;48.554;8.820;2023-03-01T01:02:31;18.02;;;13.73;;
8716;SDS011;4395;48.554;8.820;2023-03-01T01:04:36;19.05;;;13.63;;
8716;SDS011;4395;48.554;8.820;2023-03-01T01:06:39;18.95;;;12.50;;
8716;SDS011;4395;48.554;8.820;2023-03-01T01:08:44;17.33;;;12.57;;
8716;SDS011;4395;48.554;8.820;2023-03-01T01:10:47;18.40;;;12.38;;
8716;SDS011;4395;48.554;8.820;2023-03-01T01:12:50;17.20;;;11.98;;
8716;SDS011;4395;48.554;8.820;2023-03-01T01:14:52;18.17;;;12.45;;
8716;SDS011;4395;48.554;8.820;2023-03-01T01:16:55;16.83;;;12.57;;
8716;SDS011;4395;48.554;8.820;2023-03-01T01:18:58;17.48;;;13.13;;
8716;SDS011;4395;48.554;8.820;2023-03-01T01:21:07;17.40;;;12.90;;
8716;SDS011;4395;48.554;8.820;2023-03-01T01:23:11;17.15;;;12.43;;
8716;SDS011;4395;48.554;8.820;2023-03-01T01:25:14;19.42;;;13.10;;
8716;SDS011;4395;48.554;8.820;2023-03-01T01:27:17;17.08;;;12.15;;
8716;SDS011;4395;48.554;8.820;2023-03-01T01:29:19;16.48;;;12.35;;
8716;SDS011;4395;48.554;8.820;2023-03-01T01:31:23;17.08;;;12.30;;
8716;SDS011;4395;48.554;8.820;2023-03-01T01:33:26;19.38;;;13.02;;
8716;SDS011;4395;48.554;8.820;2023-03-01T01:35:29;17.50;;;12.98;;
8716;SDS011;4395;48.554;8.820;2023-03-01T01:37:34;18.45;;;12.23;;
8716;SDS011;4395;48.554;8.820;2023-03-01T01:39:36;16.10;;;12.35;;
8716;SDS011;4395;48.554;8.820;2023-03-01T01:41:40;18.25;;;12.30;;
8716;SDS011;4395;48.554;8.820;2023-03-01T01:43:44;17.98;;;12.68;;
8716;SDS011;4395;48.554;8.820;2023-03-01T01:45:49;17.98;;;12.65;;
8716;SDS011;4395;48.554;8.820;2023-03-01T01:47:52;19.25;;;13.60;;
8716;SDS011;4395;48.554;8.820;2023-03-01T01:49:57;16.45;;;13.27;;
8716;SDS011;4395;48.554;8.820;2023-03-01T01:52:02;18.13;;;12.40;;
8716;SDS011;4395;48.554;8.820;2023-03-01T01:54:12;19.02;;;13.07;;
8716;SDS011;4395;48.554;8.820;2023-03-01T01:56:18;17.30;;;13.23;;
8716;SDS011;4395;48.554;8.820;2023-03-01T01:58:22;17.10;;;12.35;;
8716;SDS011;4395;48.554;8.820;2023-03-01T02:00:28;18.10;;;12.82;;
8716;SDS011;4395;48.554;8.820;2023-03-01T02:02:32;17.17;;;12.68;;
8716;SDS011;4395;48.554;8.820;2023-03-01T02:04:35;17.35;;;12.40;;
8716;SDS011;4395;48.554;8.820;2023-03-01T02:06:39;16.75;;;12.43;;
8716;SDS011;4395;48.554;8.820;2023-03-01T02:08:48;16.77;;;12.65;;
8716;SDS011;4395;48.554;8.820;2023-03-01T02:10:56;17.58;;;12.73;;
8716;SDS011;4395;48.554;8.820;2023-03-01T02:13:01;18.88;;;12.65;;
8716;SDS011;4395;48.554;8.820;2023-03-01T02:15:05;17.63;;;13.10;;
8716;SDS011;4395;48.554;8.820;2023-03-01T02:17:09;22.50;;;13.20;;
8716;SDS011;4395;48.554;8.820;2023-03-01T02:19:15;18.27;;;13.77;;
8716;SDS011;4395;48.554;8.820;2023-03-01T02:21:29;18.98;;;12.43;;
8716;SDS011;4395;48.554;8.820;2023-03-01T02:23:37;18.48;;;13.27;;
8716;SDS011;4395;48.554;8.820;2023-03-01T02:25:44;17.10;;;12.10;;
8716;SDS011;4395;48.554;8.820;2023-03-01T02:27:55;18.70;;;12.15;;
8716;SDS011;4395;48.554;8.820;2023-03-01T02:30:09;17.02;;;13.32;;
8716;SDS011;4395;48.554;8.820;2023-03-01T02:32:14;17.83;;;13.77;;
8716;SDS011;4395;48.554;8.820;2023-03-01T02:34:18;19.50;;;12.90;;
8716;SDS011;4395;48.554;8.820;2023-03-01T02:36:24;17.98;;;12.82;;
8716;SDS011;4395;48.554;8.820;2023-03-01T02:38:31;17.60;;;12.10;;
8716;SDS011;4395;48.554;8.820;2023-03-01T02:40:35;19.50;;;13.73;;
8716;SDS011;4395;48.554;8.820;2023-03-01T02:42:42;17.40;;;13.48;;
8716;SDS011;4395;48.554;8.820;2023-03-01T02:44:49;18.77;;;12.80;;
8716;SDS011;4395;48.554;8.820;2023-03-01T02:46:55;17.30;;;13.23;;
8716;SDS011;4395;48.554;8.820;2023-03-01T02:49:00;19.63;;;13.98;;
8716;SDS011;4395;48.554;8.820;2023-03-01T02:51:04;20.90;;;14.27;;
8716;SDS011;4395;48.554;8.820;2023-03-01T02:53:13;18.05;;;13.27;;
8716;SDS011;4395;48.554;8.820;2023-03-01T02:55:19;21.42;;;13.65;;
8716;SDS011;4395;48.554;8.820;2023-03-01T02:57:22;18.23;;;12.75;;
8716;SDS011;4395;48.554;8.820;2023-03-01T02:59:29;21.20;;;14.23;;
8716;SDS011;4395;48.554;8.820;2023-03-01T03:01:35;19.70;;;12.73;;
8716;SDS011;4395;48.554;8.820;2023-03-01T03:03:42;18.63;;;13.52;;
8716;SDS011;4395;48.554;8.820;2023-03-01T03:05:45;18.08;;;13.00;;
8716;SDS011;4395;48.554;8.820;2023-03-01T03:07:50;17.30;;;13.00;;
8716;SDS011;4395;48.554;8.820;2023-03-01T03:09:53;21.73;;;13.75;;
8716;SDS011;4395;48.554;8.820;2023-03-01T03:11:56;17.25;;;13.38;;
8716;SDS011;4395;48.554;8.820;2023-03-01T03:13:59;18.73;;;13.30;;
8716;SDS011;4395;48.554;8.820;2023-03-01T03:16:03;19.30;;;13.40;;
8716;SDS011;4395;48.554;8.820;2023-03-01T03:18:07;18.38;;;13.13;;
8716;SDS011;4395;48.554;8.820;2023-03-01T03:20:14;19.02;;;13.15;;
8716;SDS011;4395;48.554;8.820;2023-03-01T03:22:20;22.65;;;14.23;;
8716;SDS011;4395;48.554;8.820;2023-03-01T03:24:23;21.95;;;14.70;;
8716;SDS011;4395;48.554;8.820;2023-03-01T03:26:25;20.63;;;14.35;;
8716;SDS011;4395;48.554;8.820;2023-03-01T03:28:28;19.52;;;13.35;;
8716;SDS011;4395;48.554;8.820;2023-03-01T03:30:31;20.30;;;14.43;;
8716;SDS011;4395;48.554;8.820;2023-03-01T03:32:35;21.00;;;14.10;;
8716;SDS011;4395;48.554;8.820;2023-03-01T03:34:38;16.58;;;13.35;;
8716;SDS011;4395;48.554;8.820;2023-03-01T03:36:42;19.65;;;14.32;;
8716;SDS011;4395;48.554;8.820;2023-03-01T03:38:45;19.25;;;14.63;;
8716;SDS011;4395;48.554;8.820;2023-03-01T03:40:47;19.35;;;13.95;;
8716;SDS011;4395;48.554;8.820;2023-03-01T03:42:51;19.38;;;13.57;;
8716;SDS011;4395;48.554;8.820;2023-03-01T03:44:54;19.42;;;13.80;;
8716;SDS011;4395;48.554;8.820;2023-03-01T03:46:57;21.23;;;15.65;;
8716;SDS011;4395;48.554;8.820;2023-03-01T03:48:59;18.98;;;13.75;;
8716;SDS011;4395;48.554;8.820;2023-03-01T03:51:02;16.50;;;12.50;;
8716;SDS011;4395;48.554;8.820;2023-03-01T03:53:09;17.85;;;13.70;;
8716;SDS011;4395;48.554;8.820;2023-03-01T03:55:14;20.17;;;13.80;;
8716;SDS011;4395;48.554;8.820;2023-03-01T03:57:20;21.52;;;13.77;;
8716;SDS011;4395;48.554;8.820;2023-03-01T03:59:23;17.55;;;13.63;;
8716;SDS011;4395;48.554;8.820;2023-03-01T04:01:26;17.80;;;13.48;;
8716;SDS011;4395;48.554;8.820;2023-03-01T04:03:29;18.80;;;14.10;;
8716;SDS011;4395;48.554;8.820;2023-03-01T04:05:35;18.83;;;14.25;;
8716;SDS011;4395;48.554;8.820;2023-03-01T04:07:38;19.25;;;13.77;;
8716;SDS011;4395;48.554;8.820;2023-03-01T04:09:42;22.75;;;15.05;;
8716;SDS011;4395;48.554;8.820;2023-03-01T04:11:46;20.73;;;14.00;;
8716;SDS011;4395;48.554;8.820;2023-03-01T04:13:50;18.30;;;13.85;;
8716;SDS011;4395;48.554;8.820;2023-03-01T04:15:54;17.92;;;13.48;;
8716;SDS011;4395;48.554;8.820;2023-03-01T04:17:57;18.27;;;14.80;;
8716;SDS011;4395;48.554;8.820;2023-03-01T04:20:00;16.05;;;13.45;;
8716;SDS011;4395;48.554;8.820;2023-03-01T04:22:06;19.42;;;14.55;;
8716;SDS011;4395;48.554;8.820;2023-03-01T04:24:10;22.08;;;14.40;;
8716;SDS011;4395;48.554;8.820;2023-03-01T04:26:15;18.98;;;14.40;;
8716;SDS011;4395;48.554;8.820;2023-03-01T04:28:17;19.63;;;14.07;;
8716;SDS011;4395;48.554;8.820;2023-03-01T04:30:20;19.48;;;15.05;;
8716;SDS011;4395;48.554;8.820;2023-03-01T04:32:26;20.85;;;14.35;;
8716;SDS011;4395;48.554;8.820;2023-03-01T04:34:29;21.63;;;15.05;;
8716;SDS011;4395;48.554;8.820;2023-03-01T04:36:32;16.75;;;13.57;;
8716;SDS011;4395;48.554;8.820;2023-03-01T04:38:37;17.90;;;14.07;;
8716;SDS011;4395;48.554;8.820;2023-03-01T04:40:40;20.42;;;14.43;;
8716;SDS011;4395;48.554;8.820;2023-03-01T04:42:45;19.95;;;14.05;;
8716;SDS011;4395;48.554;8.820;2023-03-01T04:44:48;19.23;;;13.50;;
8716;SDS011;4395;48.554;8.820;2023-03-01T04:46:52;20.55;;;14.05;;
8716;SDS011;4395;48.554;8.820;2023-03-01T04:48:55;20.20;;;14.18;;
8716;SDS011;4395;48.554;8.820;2023-03-01T04:50:58;18.63;;;14.65;;
8716;SDS011;4395;48.554;8.820;2023-03-01T04:53:00;17.23;;;13.07;;
8716;SDS011;4395;48.554;8.820;2023-03-01T04:55:04;21.13;;;14.75;;
8716;SDS011;4395;48.554;8.820;2023-03-01T04:57:07;19.10;;;14.30;;
8716;SDS011;4395;48.554;8.820;2023-03-01T04:59:11;25.92;;;15.65;;
8716;SDS011;4395;48.554;8.820;2023-03-01T05:01:15;19.88;;;15.00;;
8716;SDS011;4395;48.554;8.820;2023-03-01T05:03:20;20.30;;;14.57;;
8716;SDS011;4395;48.554;8.820;2023-03-01T05:05:25;20.95;;;14.48;;
8716;SDS011;4395;48.554;8.820;2023-03-01T05:07:29;19.55;;;14.40;;
8716;SDS011;4395;48.554;8.820;2023-03-01T05:09:31;21.75;;;14.75;;
8716;SDS011;4395;48.554;8.820;2023-03-01T05:11:34;18.77;;;14.60;;
8716;SDS011;4395;48.554;8.820;2023-03-01T05:13:38;23.83;;;15.15;;
8716;SDS011;4395;48.554;8.820;2023-03-01T05:15:43;18.77;;;14.55;;
8716;SDS011;4395;48.554;8.820;2023-03-01T05:17:45;20.15;;;14.27;;
8716;SDS011;4395;48.554;8.820;2023-03-01T05:19:48;23.48;;;14.95;;
8716;SDS011;4395;48.554;8.820;2023-03-01T05:21:51;19.02;;;14.35;;
8716;SDS011;4395;48.554;8.820;2023-03-01T05:24:06;20.55;;;15.63;;
8716;SDS011;4395;48.554;8.820;2023-03-01T05:26:13;22.02;;;15.43;;
8716;SDS011;4395;48.554;8.820;2023-03-01T05:28:28;21.65;;;14.73;;
8716;SDS011;4395;48.554;8.820;2023-03-01T05:30:31;25.27;;;15.63;;
8716;SDS011;4395;48.554;8.820;2023-03-01T05:32:36;20.23;;;14.60;;
8716;SDS011;4395;48.554;8.820;2023-03-01T05:34:39;21.58;;;15.98;;
8716;SDS011;4395;48.554;8.820;2023-03-01T05:36:41;21.30;;;15.70;;
8716;SDS011;4395;48.554;8.820;2023-03-01T05:38:44;23.02;;;14.93;;
8716;SDS011;4395;48.554;8.820;2023-03-01T05:40:47;20.65;;;14.98;;
8716;SDS011;4395;48.554;8.820;2023-03-01T05:42:52;21.95;;;14.88;;
8716;SDS011;4395;48.554;8.820;2023-03-01T05:44:56;22.08;;;15.60;;
8716;SDS011;4395;48.554;8.820;2023-03-01T05:46:58;21.42;;;15.07;;
8716;SDS011;4395;48.554;8.820;2023-03-01T05:49:02;19.35;;;14.90;;
8716;SDS011;4395;48.554;8.820;2023-03-01T05:51:05;20.63;;;14.68;;
8716;SDS011;4395;48.554;8.820;2023-03-01T05:53:09;19.38;;;14.75;;
8716;SDS011;4395;48.554;8.820;2023-03-01T05:55:13;22.23;;;15.02;;
8716;SDS011;4395;48.554;8.820;2023-03-01T05:57:16;20.13;;;14.63;;
8716;SDS011;4395;48.554;8.820;2023-03-01T05:59:18;21.05;;;16.00;;
8716;SDS011;4395;48.554;8.820;2023-03-01T06:01:21;20.73;;;15.75;;
8716;SDS011;4395;48.554;8.820;2023-03-01T06:03:24;23.85;;;15.18;;
8716;SDS011;4395;48.554;8.820;2023-03-01T06:05:28;21.33;;;14.90;;
8716;SDS011;4395;48.554;8.820;2023-03-01T06:07:31;20.58;;;15.02;;
8716;SDS011;4395;48.554;8.820;2023-03-01T06:09:34;22.52;;;15.80;;
8716;SDS011;4395;48.554;8.820;2023-03-01T06:11:36;25.52;;;16.00;;
8716;SDS011;4395;48.554;8.820;2023-03-01T06:13:40;23.13;;;15.88;;
8716;SDS011;4395;48.554;8.820;2023-03-01T06:15:43;23.48;;;16.08;;
8716;SDS011;4395;48.554;8.820;2023-03-01T06:17:46;21.73;;;16.38;;
8716;SDS011;4395;48.554;8.820;2023-03-01T06:19:49;21.52;;;16.35;;
8716;SDS011;4395;48.554;8.820;2023-03-01T06:21:53;21.08;;;15.57;;
8716;SDS011;4395;48.554;8.820;2023-03-01T06:23:55;25.65;;;16.60;;
8716;SDS011;4395;48.554;8.820;2023-03-01T06:25:58;26.20;;;16.90;;
8716;SDS011;4395;48.554;8.820;2023-03-01T06:28:01;22.80;;;15.30;;
8716;SDS011;4395;48.554;8.820;2023-03-01T06:30:06;21.45;;;15.40;;
8716;SDS011;4395;48.554;8.820;2023-03-01T06:32:11;22.80;;;16.08;;
8716;SDS011;4395;48.554;8.820;2023-03-01T06:34:13;19.95;;;15.20;;
8716;SDS011;4395;48.554;8.820;2023-03-01T06:36:16;21.55;;;15.57;;
8716;SDS011;4395;48.554;8.820;2023-03-01T06:38:23;25.08;;;16.42;;
8716;SDS011;4395;48.554;8.820;2023-03-01T06:40:26;21.48;;;15.65;;
8716;SDS011;4395;48.554;8.820;2023-03-01T06:42:29;23.13;;;15.75;;
8716;SDS011;4395;48.554;8.820;2023-03-01T06:44:32;22.75;;;16.70;;
8716;SDS011;4395;48.554;8.820;2023-03-01T06:46:34;20.73;;;15.75;;
8716;SDS011;4395;48.554;8.820;2023-03-01T06:48:37;19.55;;;13.88;;
8716;SDS011;4395;48.554;8.820;2023-03-01T06:50:40;20.25;;;14.43;;
8716;SDS011;4395;48.554;8.820;2023-03-01T06:52:43;23.77;;;16.17;;
8716;SDS011;4395;48.554;8.820;2023-03-01T06:54:47;25.00;;;16.33;;
8716;SDS011;4395;48.554;8.820;2023-03-01T06:56:50;20.67;;;15.55;;
8716;SDS011;4395;48.554;8.820;2023-03-01T06:58:53;22.92;;;15.60;;
8716;SDS011;4395;48.554;8.820;2023-03-01T07:00:56;20.73;;;16.25;;
8716;SDS011;4395;48.554;8.820;2023-03-01T07:02:59;20.58;;;15.32;;
8716;SDS011;4395;48.554;8.820;2023-03-01T07:05:03;24.60;;;16.65;;
8716;SDS011;4395;48.554;8.820;2023-03-01T07:07:06;22.40;;;16.15;;
8716;SDS011;4395;48.554;8.820;2023-03-01T07:09:09;23.48;;;16.40;;
8716;SDS011;4395;48.554;8.820;2023-03-01T07:11:14;23.33;;;15.85;;
8716;SDS011;4395;48.554;8.820;2023-03-01T07:13:16;22.75;;;16.05;;
8716;SDS011;4395;48.554;8.820;2023-03-01T07:15:19;24.58;;;15.55;;
8716;SDS011;4395;48.554;8.820;2023-03-01T07:17:22;24.63;;;15.90;;
8716;SDS011;4395;48.554;8.820;2023-03-01T07:19:25;22.80;;;16.23;;
8716;SDS011;4395;48.554;8.820;2023-03-01T07:21:27;24.50;;;16.23;;
8716;SDS011;4395;48.554;8.820;2023-03-01T07:23:30;22.25;;;15.13;;
8716;SDS011;4395;48.554;8.820;2023-03-01T07:25:33;20.90;;;16.13;;
8716;SDS011;4395;48.554;8.820;2023-03-01T07:27:37;24.90;;;15.25;;
8716;SDS011;4395;48.554;8.820;2023-03-01T07:29:40;23.20;;;15.52;;
8716;SDS011;4395;48.554;8.820;2023-03-01T07:31:43;19.73;;;14.57;;
8716;SDS011;4395;48.554;8.820;2023-03-01T07:33:45;21.40;;;15.70;;
8716;SDS011;4395;48.554;8.820;2023-03-01T07:35:48;23.63;;;15.52;;
8716;SDS011;4395;48.554;8.820;2023-03-01T07:37:58;27.25;;;15.52;;
8716;SDS011;4395;48.554;8.820;2023-03-01T07:40:01;23.08;;;15.77;;
8716;SDS011;4395;48.554;8.820;2023-03-01T07:42:04;20.85;;;15.35;;
8716;SDS011;4395;48.554;8.820;2023-03-01T07:44:08;20.17;;;14.60;;
8716;SDS011;4395;48.554;8.820;2023-03-01T07:46:11;23.45;;;15.35;;
8716;SDS011;4395;48.554;8.820;2023-03-01T07:48:14;21.25;;;15.05;;
8716;SDS011;4395;48.554;8.820;2023-03-01T07:50:17;20.63;;;14.85;;
8716;SDS011;4395;48.554;8.820;2023-03-01T07:52:20;22.63;;;16.08;;
8716;SDS011;4395;48.554;8.820;2023-03-01T07:54:23;21.85;;;14.63;;
8716;SDS011;4395;48.554;8.820;2023-03-01T07:56:27;23.33;;;15.88;;
8716;SDS011;4395;48.554;8.820;2023-03-01T07:58:30;23.33;;;15.43;;
8716;SDS011;4395;48.554;8.820;2023-03-01T08:00:35;27.08;;;15.57;;
8716;SDS011;4395;48.554;8.820;2023-03-01T08:02:38;19.60;;;15.65;;
8716;SDS011;4395;48.554;8.820;2023-03-01T08:04:42;21.05;;;15.23;;
8716;SDS011;4395;48.554;8.820;2023-03-01T08:06:45;22.02;;;15.85;;
8716;SDS011;4395;48.554;8.820;2023-03-01T08:08:48;22.10;;;16.83;;
8716;SDS011;4395;48.554;8.820;2023-03-01T08:10:51;21.90;;;15.18;;
8716;SDS011;4395;48.554;8.820;2023-03-01T08:12:53;25.05;;;15.52;;
8716;SDS011;4395;48.554;8.820;2023-03-01T08:14:56;24.17;;;15.77;;
8716;SDS011;4395;48.554;8.820;2023-03-01T08:17:00;20.30;;;15.63;;
8716;SDS011;4395;48.554;8.820;2023-03-01T08:19:04;21.45;;;16.45;;
8716;SDS011;4395;48.554;8.820;2023-03-01T08:21:08;23.05;;;15.88;;
8716;SDS011;4395;48.554;8.820;2023-03-01T08:23:12;23.50;;;16.52;;
8716;SDS011;4395;48.554;8.820;2023-03-01T08:25:15;20.10;;;15.23;;
8716;SDS011;4395;48.554;8.820;2023-03-01T08:27:18;23.92;;;16.67;;
8716;SDS011;4395;48.554;8.820;2023-03-01T08:29:20;21.17;;;16.38;;
8716;SDS011;4395;48.554;8.820;2023-03-01T08:31:24;23.30;;;15.98;;
8716;SDS011;4395;48.554;8.820;2023-03-01T08:33:30;23.10;;;15.65;;
8716;SDS011;4395;48.554;8.820;2023-03-01T08:35:33;24.58;;;16.35;;
8716;SDS011;4395;48.554;8.820;2023-03-01T08:37:35;25.88;;;16.65;;
8716;SDS011;4395;48.554;8.820;2023-03-01T08:39:38;21.77;;;15.75;;
8716;SDS011;4395;48.554;8.820;2023-03-01T08:41:41;20.98;;;15.52;;
8716;SDS011;4395;48.554;8.820;2023-03-01T08:43:47;20.33;;;15.38;;
8716;SDS011;4395;48.554;8.820;2023-03-01T08:45:50;22.13;;;16.25;;
8716;SDS011;4395;48.554;8.820;2023-03-01T08:47:52;20.92;;;15.95;;
8716;SDS011;4395;48.554;8.820;2023-03-01T08:49:57;18.38;;;14.50;;
8716;SDS011;4395;48.554;8.820;2023-03-01T08:51:59;22.48;;;16.13;;
8716;SDS011;4395;48.554;8.820;2023-03-01T08:54:04;22.60;;;17.15;;
8716;SDS011;4395;48.554;8.820;2023-03-01T08:56:07;26.60;;;16.63;;
8716;SDS011;4395;48.554;8.820;2023-03-01T08:58:10;22.42;;;15.55;;
8716;SDS011;4395;48.554;8.820;2023-03-01T09:00:13;20.30;;;15.07;;
8716;SDS011;4395;48.554;8.820;2023-03-01T09:02:17;22.73;;;16.35;;
8716;SDS011;4395;48.554;8.820;2023-03-01T09:04:20;25.85;;;16.27;;
8716;SDS011;4395;48.554;8.820;2023-03-01T09:06:25;20.13;;;15.48;;
8716;SDS011;4395;48.554;8.820;2023-03-01T09:08:28;23.40;;;15.77;;
8716;SDS011;4395;48.554;8.820;2023-03-01T09:10:31;20.80;;;15.40;;
8716;SDS011;4395;48.554;8.820;2023-03-01T09:12:34;27.85;;;20.35;;
8716;SDS011;4395;48.554;8.820;2023-03-01T09:14:37;41.75;;;16.73;;
8716;SDS011;4395;48.554;8.820;2023-03-01T09:16:40;30.05;;;20.40;;
8716;SDS011;4395;48.554;8.820;2023-03-01T09:18:43;21.23;;;16.38;;
8716;SDS011;4395;48.554;8.820;2023-03-01T09:20:46;21.90;;;15.77;;
8716;SDS011;4395;48.554;8.820;2023-03-01T09:22:50;19.75;;;15.23;;
8716;SDS011;4395;48.554;8.820;2023-03-01T09:24:53;20.67;;;15.70;;
8716;SDS011;4395;48.554;8.820;2023-03-01T09:26:57;18.52;;;15.27;;
8716;SDS011;4395;48.554;8.820;2023-03-01T09:29:00;26.15;;;15.98;;
8716;SDS011;4395;48.554;8.820;2023-03-01T09:31:03;23.02;;;15.55;;
8716;SDS011;4395;48.554;8.820;2023-03-01T09:33:06;18.80;;;14.85;;
8716;SDS011;4395;48.554;8.820;2023-03-01T09:35:15;18.88;;;14.25;;
8716;SDS011;4395;48.554;8.820;2023-03-01T09:37:19;19.85;;;16.00;;
8716;SDS011;4395;48.554;8.820;2023-03-01T09:39:23;20.40;;;15.38;;
8716;SDS011;4395;48.554;8.820;2023-03-01T09:41:36;19.50;;;15.25;;
8716;SDS011;4395;48.554;8.820;2023-03-01T09:43:47;19.88;;;15.32;;
8716;SDS011;4395;48.554;8.820;2023-03-01T09:45:58;20.60;;;14.73;;
8716;SDS011;4395;48.554;8.820;2023-03-01T09:48:06;20.05;;;16.23;;
8716;SDS011;4395;48.554;8.820;2023-03-01T09:50:16;24.35;;;16.58;;
8716;SDS011;4395;48.554;8.820;2023-03-01T09:52:22;20.23;;;15.32;;
8716;SDS011;4395;48.554;8.820;2023-03-01T09:54:32;19.75;;;14.73;;
8716;SDS011;4395;48.554;8.820;2023-03-01T09:56:36;20.02;;;15.93;;
8716;SDS011;4395;48.554;8.820;2023-03-01T09:58:46;19.60;;;15.35;;
8716;SDS011;4395;48.554;8.820;2023-03-01T10:00:53;19.50;;;15.48;;
8716;SDS011;4395;48.554;8.820;2023-03-01T10:03:01;24.65;;;15.52;;
8716;SDS011;4395;48.554;8.820;2023-03-01T10:05:14;24.85;;;15.85;;
8716;SDS011;4395;48.554;8.820;2023-03-01T10:07:27;21.40;;;15.48;;
8716;SDS011;4395;48.554;8.820;2023-03-01T10:09:37;21.83;;;15.68;;
8716;SDS011;4395;48.554;8.820;2023-03-01T10:11:42;23.70;;;16.08;;
8716;SDS011;4395;48.554;8.820;2023-03-01T10:13:50;19.35;;;15.35;;
8716;SDS011;4395;48.554;8.820;2023-03-01T10:16:00;33.92;;;17.10;;
8716;SDS011;4395;48.554;8.820;2023-03-01T10:18:09;19.10;;;15.25;;
8716;SDS011;4395;48.554;8.820;2023-03-01T10:20:19;19.42;;;15.85;;
8716;SDS011;4395;48.554;8.820;2023-03-01T10:22:24;39.47;;;17.08;;
8716;SDS011;4395;48.554;8.820;2023-03-01T10:24:31;23.58;;;16.27;;
8716;SDS011;4395;48.554;8.820;2023-03-01T10:26:40;28.75;;;17.88;;
8716;SDS011;4395;48.554;8.820;2023-03-01T10:28:53;22.05;;;15.50;;
8716;SDS011;4395;48.554;8.820;2023-03-01T10:31:04;19.95;;;16.23;;
8716;SDS011;4395;48.554;8.820;2023-03-01T10:33:09;20.02;;;16.17;;
8716;SDS011;4395;48.554;8.820;2023-03-01T10:35:20;19.02;;;15.40;;
8716;SDS011;4395;48.554;8.820;2023-03-01T10:37:25;19.95;;;16.02;;
8716;SDS011;4395;48.554;8.820;2023-03-01T10:39:28;20.08;;;14.52;;
8716;SDS011;4395;48.554;8.820;2023-03-01T10:41:31;23.00;;;15.32;;
8716;SDS011;4395;48.554;8.820;2023-03-01T10:43:43;19.00;;;15.10;;
8716;SDS011;4395;48.554;8.820;2023-03-01T10:45:49;23.42;;;14.52;;
8716;SDS011;4395;48.554;8.820;2023-03-01T10:48:00;18.17;;;14.60;;
8716;SDS011;4395;48.554;8.820;2023-03-01T10:50:09;18.08;;;14.18;;
8716;SDS011;4395;48.554;8.820;2023-03-01T10:52:22;18.88;;;14.00;;
8716;SDS011;4395;48.554;8.820;2023-03-01T10:54:28;25.52;;;15.40;;
8716;SDS011;4395;48.554;8.820;2023-03-01T10:56:35;18.30;;;14.77;;
8716;SDS011;4395;48.554;8.820;2023-03-01T10:58:57;20.67;;;14.45;;
8716;SDS011;4395;48.554;8.820;2023-03-01T11:01:03;18.45;;;15.27;;
8716;SDS011;4395;48.554;8.820;2023-03-01T11:03:11;18.00;;;14.32;;
8716;SDS011;4395;48.554;8.820;2023-03-01T11:05:24;19.00;;;13.70;;
8716;SDS011;4395;48.554;8.820;2023-03-01T11:07:29;20.00;;;14.90;;
8716;SDS011;4395;48.554;8.820;2023-03-01T11:09:33;20.88;;;15.23;;
8716;SDS011;4395;48.554;8.820;2023-03-01T11:11:38;17.90;;;13.98;;
8716;SDS011;4395;48.554;8.820;2023-03-01T11:13:47;16.42;;;14.65;;
8716;SDS011;4395;48.554;8.820;2023-03-01T11:15:59;19.88;;;13.95;;
8716;SDS011;4395;48.554;8.820;2023-03-01T11:18:02;24.30;;;15.00;;
8716;SDS011;4395;48.554;8.820;2023-03-01T11:20:17;19.45;;;14.35;;
8716;SDS011;4395;48.554;8.820;2023-03-01T11:22:29;20.45;;;14.45;;
8716;SDS011;4395;48.554;8.820;2023-03-01T11:24:37;23.80;;;17.85;;
8716;SDS011;4395;48.554;8.820;2023-03-01T11:26:45;24.50;;;18.35;;
8716;SDS011;4395;48.554;8.820;2023-03-01T11:28:54;22.70;;;16.63;;
8716;SDS011;4395;48.554;8.820;2023-03-01T11:31:02;20.58;;;14.98;;
8716;SDS011;4395;48.554;8.820;2023-03-01T11:33:12;20.45;;;16.27;;
8716;SDS011;4395;48.554;8.820;2023-03-01T11:35:20;17.92;;;15.73;;
8716;SDS011;4395;48.554;8.820;2023-03-01T11:37:28;21.40;;;16.05;;
8716;SDS011;4395;48.554;8.820;2023-03-01T11:39:38;18.48;;;15.38;;
8716;SDS011;4395;48.554;8.820;2023-03-01T11:41:44;23.13;;;16.63;;
8716;SDS011;4395;48.554;8.820;2023-03-01T11:43:54;19.80;;;15.65;;
8716;SDS011;4395;48.554;8.820;2023-03-01T11:48:55;21.95;;;17.15;;
8716;SDS011;4395;48.554;8.820;2023-03-01T11:51:09;19.58;;;16.13;;
8716;SDS011;4395;48.554;8.820;2023-03-01T11:53:26;21.75;;;17.88;;
8716;SDS011;4395;48.554;8.820;2023-03-01T11:58:19;19.58;;;14.30;;
8716;SDS011;4395;48.554;8.820;2023-03-01T12:00:42;21.38;;;19.08;;
8716;SDS011;4395;48.554;8.820;2023-03-01T12:03:01;18.33;;;14.30;;
8716;SDS011;4395;48.554;8.820;2023-03-01T12:05:36;16.73;;;14.40;;
8716;SDS011;4395;48.554;8.820;2023-03-01T12:08:00;16.83;;;14.20;;
8716;SDS011;4395;48.554;8.820;2023-03-01T12:10:20;32.40;;;16.45;;
8716;SDS011;4395;48.554;8.820;2023-03-01T12:12:30;16.95;;;13.63;;
8716;SDS011;4395;48.554;8.820;2023-03-01T12:14:46;17.65;;;14.27;;
8716;SDS011;4395;48.554;8.820;2023-03-01T12:17:08;24.63;;;14.68;;
8716;SDS011;4395;48.554;8.820;2023-03-01T12:19:27;15.73;;;13.82;;
8716;SDS011;4395;48.554;8.820;2023-03-01T12:22:04;17.67;;;14.50;;
8716;SDS011;4395;48.554;8.820;2023-03-01T12:26:48;20.75;;;14.30;;
8716;SDS011;4395;48.554;8.820;2023-03-01T12:29:08;19.05;;;13.77;;
8716;SDS011;4395;48.554;8.820;2023-03-01T12:31:31;18.75;;;13.90;;
8716;SDS011;4395;48.554;8.820;2023-03-01T12:33:45;15.88;;;12.77;;
8716;SDS011;4395;48.554;8.820;2023-03-01T12:36:04;19.08;;;13.90;;
8716;SDS011;4395;48.554;8.820;2023-03-01T12:38:22;17.90;;;13.50;;
8716;SDS011;4395;48.554;8.820;2023-03-01T12:40:40;14.40;;;12.85;;
8716;SDS011;4395;48.554;8.820;2023-03-01T12:42:55;21.45;;;14.40;;
8716;SDS011;4395;48.554;8.820;2023-03-01T12:47:41;21.35;;;13.75;;